Fallsington, Pennsylvania
Current Conditions -  °F | °C
As of 11:53 PM on Friday 24 Oct 2014 (Local Time) from KTTN Reporting Station
Clear Clear  
Wind Chill: 56°   Ceiling: Unl
Heat Index: 56°   Visibility: 10mi
Dew Point: 38°   Wind: 3mph
Humidity: 51%   Direction: 330°NNW
Pressure: 29.86"   Gusts: NA
Location:  40.1722°N, 74.822°W
Report Text: KTTN 250353Z AUTO 33003KT 10SM CLR 13/03 A2986 RMK AO2 SLP106 T01330033
Loading
Personal Weather Stations






























Interactive Weather Map
Tropical Storm Tracking
New forecast layout! Learn more

10-Day Weather Forecast

Advertisements
Track Severe Weather on mobile